createdAt,value
2023-03-08T00:00:36.086Z,0.60
2023-03-08T00:03:02.763Z,0.70
2023-03-08T00:05:29.298Z,0.70
2023-03-08T00:07:55.847Z,0.70
2023-03-08T00:10:22.498Z,0.70
2023-03-08T00:12:49.119Z,0.70
2023-03-08T00:15:15.697Z,0.70
2023-03-08T00:17:42.261Z,0.70
2023-03-08T00:20:10.568Z,0.70
2023-03-08T00:22:37.625Z,0.70
2023-03-08T00:25:04.870Z,0.70
2023-03-08T00:27:31.479Z,0.70
2023-03-08T00:29:58.334Z,0.70
2023-03-08T00:32:26.704Z,0.70
2023-03-08T00:34:53.842Z,0.70
2023-03-08T00:37:20.653Z,0.70
2023-03-08T00:39:53.721Z,0.70
2023-03-08T00:42:23.860Z,0.70
2023-03-08T00:44:50.569Z,0.70
2023-03-08T00:47:17.152Z,0.70
2023-03-08T00:49:44.226Z,0.60
2023-03-08T00:52:11.051Z,0.60
2023-03-08T00:54:37.823Z,0.70
2023-03-08T00:57:04.498Z,0.60
2023-03-08T00:59:31.878Z,0.60
2023-03-08T01:01:58.850Z,0.60
2023-03-08T01:04:25.462Z,0.60
2023-03-08T01:06:52.002Z,0.60
2023-03-08T01:09:18.565Z,0.60
2023-03-08T01:11:45.242Z,0.50
2023-03-08T01:14:13.444Z,0.50
2023-03-08T01:16:40.731Z,0.40
2023-03-08T01:19:07.306Z,0.30
2023-03-08T01:21:34.474Z,0.30
2023-03-08T01:24:01.077Z,0.30
2023-03-08T01:26:28.301Z,0.30
2023-03-08T01:28:55.564Z,0.30
2023-03-08T01:31:23.896Z,0.40
2023-03-08T01:33:52.257Z,0.40
2023-03-08T01:36:20.415Z,0.50
2023-03-08T01:38:47.467Z,0.50
2023-03-08T01:41:24.780Z,0.50
2023-03-08T01:43:51.648Z,0.50
2023-03-08T01:46:20.335Z,0.50
2023-03-08T01:49:08.514Z,0.50
2023-03-08T01:51:47.822Z,0.50
2023-03-08T01:54:25.316Z,0.40
2023-03-08T01:56:53.556Z,0.30
2023-03-08T01:59:22.010Z,0.30
2023-03-08T02:01:49.174Z,0.20
2023-03-08T02:04:16.298Z,0.20
2023-03-08T02:06:45.405Z,0.10
2023-03-08T02:09:13.878Z,0.00
2023-03-08T02:11:41.147Z,-0.10
2023-03-08T02:14:07.695Z,-0.10
2023-03-08T02:16:34.614Z,-0.10
2023-03-08T02:19:02.718Z,-0.10
2023-03-08T02:21:29.978Z,-0.10
2023-03-08T02:24:02.168Z,-0.20
2023-03-08T02:26:28.699Z,-0.30
2023-03-08T02:28:55.246Z,-0.30
2023-03-08T02:31:21.780Z,-0.30
2023-03-08T02:33:48.302Z,-0.40
2023-03-08T02:36:14.855Z,-0.50
2023-03-08T02:38:42.478Z,-0.50
2023-03-08T02:41:09.044Z,-0.60
2023-03-08T02:43:36.157Z,-0.50
2023-03-08T02:46:03.142Z,-0.50
2023-03-08T02:48:31.654Z,-0.60
2023-03-08T02:50:58.376Z,-0.70
2023-03-08T02:53:24.984Z,-0.60
2023-03-08T02:55:52.020Z,-0.60
2023-03-08T02:58:18.573Z,-0.60
2023-03-08T03:00:45.368Z,-0.70
2023-03-08T03:03:12.180Z,-0.60
2023-03-08T03:05:43.083Z,-0.60
2023-03-08T03:08:12.787Z,-0.50
2023-03-08T03:13:06.118Z,-0.40
2023-03-08T03:15:33.114Z,-0.30
2023-03-08T03:18:00.639Z,-0.20
2023-03-08T03:20:27.185Z,-0.10
2023-03-08T03:22:53.754Z,-0.10
2023-03-08T03:25:25.970Z,0.00
2023-03-08T03:27:54.133Z,0.00
2023-03-08T03:30:21.103Z,0.00
2023-03-08T03:32:48.077Z,0.00
2023-03-08T03:35:19.397Z,0.00
2023-03-08T03:37:45.989Z,0.00
2023-03-08T03:40:14.054Z,0.00
2023-03-08T03:42:42.730Z,0.00
2023-03-08T03:45:13.056Z,0.00
2023-03-08T03:47:40.128Z,0.10
2023-03-08T03:50:08.776Z,0.10
2023-03-08T03:52:49.262Z,0.10
2023-03-08T03:55:16.135Z,0.10
2023-03-08T03:57:44.469Z,0.10
2023-03-08T04:00:15.407Z,0.20
2023-03-08T04:02:45.946Z,0.20
2023-03-08T04:05:15.447Z,0.20
2023-03-08T04:07:46.061Z,0.20
2023-03-08T04:10:13.059Z,0.20
2023-03-08T04:12:40.541Z,0.20
2023-03-08T04:15:07.724Z,0.20
2023-03-08T04:17:34.296Z,0.20
2023-03-08T04:20:01.279Z,0.20
2023-03-08T04:22:32.601Z,0.20
2023-03-08T04:25:16.359Z,0.20
2023-03-08T04:27:49.187Z,0.10
2023-03-08T04:30:16.255Z,0.10
2023-03-08T04:32:44.151Z,0.10
2023-03-08T04:35:11.288Z,0.10
2023-03-08T04:37:40.193Z,0.00
2023-03-08T04:40:11.744Z,0.00
2023-03-08T04:42:45.682Z,0.00
2023-03-08T04:45:15.365Z,0.00
2023-03-08T04:47:42.010Z,0.00
2023-03-08T04:50:09.113Z,0.00
2023-03-08T04:52:36.494Z,0.00
2023-03-08T04:55:05.725Z,0.00
2023-03-08T04:57:32.360Z,0.00
2023-03-08T05:00:00.443Z,0.00
2023-03-08T05:02:27.088Z,-0.10
2023-03-08T05:04:53.720Z,-0.10
2023-03-08T05:07:21.088Z,-0.10
2023-03-08T05:09:49.080Z,-0.10
2023-03-08T05:12:15.683Z,-0.10
2023-03-08T05:14:52.036Z,-0.10
2023-03-08T05:17:20.409Z,-0.10
2023-03-08T05:19:47.032Z,-0.20
2023-03-08T05:22:18.301Z,-0.20
2023-03-08T05:24:48.728Z,-0.20
2023-03-08T05:27:16.598Z,-0.20
2023-03-08T05:29:44.095Z,-0.20
2023-03-08T05:32:11.558Z,-0.20
2023-03-08T05:34:39.259Z,-0.20
2023-03-08T05:37:08.725Z,-0.30
2023-03-08T05:39:37.475Z,-0.30
2023-03-08T05:42:12.753Z,-0.20
2023-03-08T05:44:41.438Z,-0.20
2023-03-08T05:47:10.369Z,-0.10
2023-03-08T05:49:37.263Z,-0.10
2023-03-08T05:52:05.185Z,-0.10
2023-03-08T05:54:32.024Z,-0.20
2023-03-08T05:57:03.161Z,-0.20
2023-03-08T05:59:30.805Z,-0.20
2023-03-08T06:02:01.093Z,-0.20
2023-03-08T06:04:41.548Z,-0.20
2023-03-08T06:07:09.738Z,-0.20
2023-03-08T06:09:40.886Z,-0.20
2023-03-08T06:12:12.241Z,-0.20
2023-03-08T06:14:38.916Z,-0.20
2023-03-08T06:17:06.149Z,-0.30
2023-03-08T06:19:35.797Z,-0.20
2023-03-08T06:22:02.347Z,-0.30
2023-03-08T06:24:29.244Z,-0.30
2023-03-08T06:26:58.060Z,-0.30
2023-03-08T06:29:24.611Z,-0.30
2023-03-08T06:31:51.158Z,-0.20
2023-03-08T06:34:18.334Z,-0.20
2023-03-08T06:36:46.380Z,-0.20
2023-03-08T06:39:13.265Z,-0.20
2023-03-08T06:41:40.072Z,-0.10
2023-03-08T06:44:07.114Z,-0.10
2023-03-08T06:46:33.671Z,0.00
2023-03-08T06:49:00.356Z,0.00
2023-03-08T06:51:27.137Z,0.00
2023-03-08T06:53:53.896Z,0.10
2023-03-08T06:56:24.233Z,0.10
2023-03-08T06:58:50.788Z,0.20
2023-03-08T07:01:17.601Z,0.20
2023-03-08T07:03:45.340Z,0.30
2023-03-08T07:06:11.909Z,0.30
2023-03-08T07:08:39.521Z,0.30
2023-03-08T07:11:06.745Z,0.40
2023-03-08T07:13:33.329Z,0.40
2023-03-08T07:15:59.902Z,0.40
2023-03-08T07:18:26.499Z,0.60
2023-03-08T07:20:53.696Z,0.60
2023-03-08T07:23:20.271Z,0.60
2023-03-08T07:25:46.868Z,0.60
2023-03-08T07:28:13.420Z,0.70
2023-03-08T07:30:40.082Z,0.60
2023-03-08T07:33:06.806Z,0.60
2023-03-08T07:35:33.438Z,0.60
2023-03-08T07:37:59.980Z,0.60
2023-03-08T07:40:26.715Z,0.60
2023-03-08T07:42:53.622Z,0.60
2023-03-08T07:45:33.475Z,0.60
2023-03-08T07:48:00.046Z,0.70
2023-03-08T07:50:26.691Z,0.70
2023-03-08T07:52:53.297Z,0.80
2023-03-08T07:55:21.355Z,0.80
2023-03-08T07:57:47.933Z,0.80
2023-03-08T08:00:14.651Z,0.90
2023-03-08T08:02:41.262Z,0.90
2023-03-08T08:05:08.116Z,1.00
2023-03-08T08:07:34.760Z,1.00
2023-03-08T08:10:01.289Z,1.10
2023-03-08T08:12:27.958Z,1.10
2023-03-08T08:14:54.552Z,1.30
2023-03-08T08:17:21.253Z,1.40
2023-03-08T08:19:48.285Z,1.50
2023-03-08T08:22:15.027Z,1.70
2023-03-08T08:24:41.732Z,1.80
2023-03-08T08:27:08.334Z,1.90
2023-03-08T08:29:35.030Z,2.00
2023-03-08T08:32:02.382Z,2.10
2023-03-08T08:34:28.956Z,2.10
2023-03-08T08:36:55.524Z,2.00
2023-03-08T08:39:22.546Z,2.10
2023-03-08T08:41:50.103Z,2.00
2023-03-08T08:44:16.781Z,2.00
2023-03-08T08:46:43.293Z,2.00
2023-03-08T08:49:10.095Z,2.10
2023-03-08T08:51:36.651Z,2.10
2023-03-08T08:54:03.784Z,2.20
2023-03-08T08:56:30.524Z,2.30
2023-03-08T08:59:00.631Z,2.30
2023-03-08T09:01:31.511Z,2.10
2023-03-08T09:03:58.221Z,2.10
2023-03-08T09:06:25.604Z,2.20
2023-03-08T09:08:53.211Z,2.30
2023-03-08T09:11:19.802Z,2.40
2023-03-08T09:13:46.384Z,2.50
2023-03-08T09:16:32.088Z,2.70
2023-03-08T09:18:59.390Z,2.70
2023-03-08T09:21:26.760Z,2.60
2023-03-08T09:23:53.663Z,2.40
2023-03-08T09:26:20.409Z,2.30
2023-03-08T09:28:46.974Z,2.30
2023-03-08T09:31:18.106Z,2.30
2023-03-08T09:33:46.338Z,2.30
2023-03-08T09:36:12.885Z,2.30
2023-03-08T09:38:39.838Z,2.30
2023-03-08T09:41:28.001Z,2.30
2023-03-08T09:44:03.931Z,2.50
2023-03-08T09:46:33.805Z,2.60
2023-03-08T09:49:01.693Z,2.80
2023-03-08T09:51:32.011Z,2.90
2023-03-08T09:54:02.956Z,2.70
2023-03-08T09:56:36.558Z,2.80
2023-03-08T09:59:07.539Z,2.70
2023-03-08T10:01:43.076Z,2.80
2023-03-08T10:04:14.377Z,2.80
2023-03-08T10:06:46.688Z,2.80
2023-03-08T10:09:32.970Z,2.90
2023-03-08T10:12:18.089Z,2.90
2023-03-08T10:14:49.512Z,3.00
2023-03-08T10:17:23.495Z,3.10
2023-03-08T10:19:55.515Z,3.20
2023-03-08T10:22:27.344Z,3.50
2023-03-08T10:24:57.481Z,3.40
2023-03-08T10:27:26.261Z,3.50
2023-03-08T10:29:54.487Z,3.40
2023-03-08T10:32:21.363Z,3.50
2023-03-08T10:34:48.060Z,3.40
2023-03-08T10:37:15.146Z,3.30
2023-03-08T10:39:53.325Z,3.20
2023-03-08T10:42:25.050Z,3.40
2023-03-08T10:44:56.975Z,3.40
2023-03-08T10:47:32.408Z,3.50
2023-03-08T10:50:16.525Z,3.50
2023-03-08T10:52:44.285Z,3.40
2023-03-08T10:55:13.920Z,3.60
2023-03-08T10:57:42.244Z,3.60
2023-03-08T11:00:29.210Z,3.70
2023-03-08T11:03:13.034Z,3.60
2023-03-08T11:05:39.642Z,3.50
2023-03-08T11:08:16.382Z,3.30
2023-03-08T11:10:42.997Z,3.40
2023-03-08T11:13:18.699Z,3.40
2023-03-08T11:15:48.732Z,3.40
2023-03-08T11:18:24.576Z,3.50
2023-03-08T11:20:56.832Z,3.60
2023-03-08T11:23:30.420Z,3.70
2023-03-08T11:26:02.755Z,3.70
2023-03-08T11:28:36.557Z,4.00
2023-03-08T11:31:08.287Z,3.90
2023-03-08T11:33:41.206Z,4.10
2023-03-08T11:36:14.088Z,4.10
2023-03-08T11:38:41.894Z,4.00
2023-03-08T11:41:11.490Z,4.20
2023-03-08T11:43:54.205Z,4.40
2023-03-08T11:46:23.106Z,4.70
2023-03-08T11:49:18.211Z,4.50
2023-03-08T11:51:44.780Z,4.20
2023-03-08T11:54:36.708Z,4.30
2023-03-08T11:57:05.640Z,3.90
2023-03-08T11:59:41.207Z,3.60
2023-03-08T12:02:07.730Z,3.60
2023-03-08T12:04:38.611Z,3.80
2023-03-08T12:07:07.709Z,4.00
2023-03-08T12:09:42.032Z,4.40
2023-03-08T12:12:16.009Z,4.40
2023-03-08T12:14:48.721Z,4.40
2023-03-08T12:17:18.542Z,4.30
2023-03-08T12:19:46.667Z,4.20
2023-03-08T12:22:33.454Z,3.90
2023-03-08T12:25:15.499Z,3.60
2023-03-08T12:27:51.882Z,3.50
2023-03-08T12:30:37.433Z,3.30
2023-03-08T12:33:04.732Z,3.10
2023-03-08T12:35:35.990Z,3.40
2023-03-08T12:38:04.952Z,3.30
2023-03-08T12:40:36.295Z,3.20
2023-03-08T12:43:07.529Z,3.00
2023-03-08T12:45:34.303Z,2.90
2023-03-08T12:48:08.881Z,2.80
2023-03-08T12:50:44.257Z,2.80
2023-03-08T12:53:21.933Z,2.80
2023-03-08T12:55:59.003Z,2.80
2023-03-08T12:58:25.811Z,2.90
2023-03-08T13:01:00.029Z,3.00
2023-03-08T13:03:28.334Z,3.10
2023-03-08T13:05:56.521Z,3.00
2023-03-08T13:08:36.248Z,3.10
2023-03-08T13:11:05.540Z,3.10
2023-03-08T13:13:40.535Z,3.30
2023-03-08T13:16:18.746Z,3.30
2023-03-08T13:18:47.084Z,3.30
2023-03-08T13:21:25.554Z,3.00
2023-03-08T13:23:58.655Z,3.00
2023-03-08T13:26:50.452Z,3.00
2023-03-08T13:29:18.684Z,2.90
2023-03-08T13:31:46.727Z,3.00
2023-03-08T13:34:24.215Z,2.90
2023-03-08T13:36:50.816Z,2.80
2023-03-08T13:39:21.744Z,2.60
2023-03-08T13:41:48.742Z,2.70
2023-03-08T13:44:16.896Z,2.70
2023-03-08T13:46:43.985Z,2.70
2023-03-08T13:49:30.493Z,2.80
2023-03-08T13:51:58.743Z,2.70
2023-03-08T13:54:36.380Z,2.90
2023-03-08T13:57:05.369Z,2.90
2023-03-08T13:59:32.175Z,2.80
2023-03-08T14:01:58.843Z,2.60
2023-03-08T14:04:26.993Z,2.60
2023-03-08T14:06:55.326Z,2.50
2023-03-08T14:09:22.067Z,2.40
2023-03-08T14:12:00.045Z,2.40
2023-03-08T14:14:28.615Z,2.40
2023-03-08T14:16:55.358Z,2.50
2023-03-08T14:19:24.240Z,2.40
2023-03-08T14:21:59.563Z,2.50
2023-03-08T14:24:27.438Z,2.40
2023-03-08T14:26:56.829Z,2.40
2023-03-08T14:29:24.253Z,2.40
2023-03-08T14:31:55.845Z,2.40
2023-03-08T14:34:23.907Z,2.40
2023-03-08T14:36:55.349Z,2.40
2023-03-08T14:39:23.107Z,2.40
2023-03-08T14:41:50.146Z,2.40
2023-03-08T14:44:19.657Z,2.30
2023-03-08T14:46:46.275Z,2.30
2023-03-08T14:49:21.001Z,2.40
2023-03-08T14:51:47.572Z,2.40
2023-03-08T14:54:33.803Z,2.50
2023-03-08T14:57:21.228Z,2.40
2023-03-08T14:59:48.286Z,2.40
2023-03-08T15:02:15.615Z,2.50
2023-03-08T15:04:43.242Z,2.40
2023-03-08T15:07:20.718Z,2.30
2023-03-08T15:09:48.526Z,2.20
2023-03-08T15:12:15.230Z,2.20
2023-03-08T15:14:41.868Z,2.30
2023-03-08T15:17:08.397Z,2.40
2023-03-08T15:19:35.034Z,2.40
2023-03-08T15:22:01.871Z,2.30
2023-03-08T15:24:28.441Z,2.20
2023-03-08T15:26:56.701Z,2.20
2023-03-08T15:29:28.236Z,2.10
2023-03-08T15:31:55.136Z,2.10
2023-03-08T15:34:22.029Z,2.10
2023-03-08T15:36:49.286Z,2.10
2023-03-08T15:39:15.845Z,2.00
2023-03-08T15:41:42.481Z,2.10
2023-03-08T15:44:09.299Z,2.00
2023-03-08T15:46:35.855Z,2.00
2023-03-08T15:49:02.515Z,1.90
2023-03-08T15:51:31.202Z,1.80
2023-03-08T15:53:58.008Z,1.70
2023-03-08T15:56:25.601Z,1.60
2023-03-08T15:58:52.436Z,1.70
2023-03-08T16:01:19.178Z,1.70
2023-03-08T16:03:45.715Z,1.60
2023-03-08T16:06:13.152Z,1.60
2023-03-08T16:08:40.828Z,1.60
2023-03-08T16:11:10.806Z,1.60
2023-03-08T16:13:37.339Z,1.60
2023-03-08T16:16:04.175Z,1.60
2023-03-08T16:18:31.346Z,1.50
2023-03-08T16:20:58.246Z,1.40
2023-03-08T16:23:25.273Z,1.40
2023-03-08T16:26:14.024Z,1.30
2023-03-08T16:28:43.469Z,1.20
2023-03-08T16:31:10.180Z,1.20
2023-03-08T16:33:36.725Z,1.10
2023-03-08T16:36:03.628Z,1.10
2023-03-08T16:38:30.377Z,1.10
2023-03-08T16:41:11.648Z,1.10
2023-03-08T16:43:46.446Z,1.00
2023-03-08T16:46:15.037Z,1.00
2023-03-08T16:48:41.663Z,1.00
2023-03-08T16:51:13.457Z,1.00
2023-03-08T16:53:40.275Z,0.90
2023-03-08T16:56:06.820Z,0.90
2023-03-08T16:58:33.354Z,0.80
2023-03-08T17:00:59.901Z,0.90
2023-03-08T17:03:26.560Z,0.80
2023-03-08T17:05:53.244Z,0.80
2023-03-08T17:08:19.758Z,0.80
2023-03-08T17:10:46.359Z,0.80
2023-03-08T17:13:12.923Z,0.80
2023-03-08T17:15:40.820Z,0.90
2023-03-08T17:18:08.392Z,0.90
2023-03-08T17:20:37.789Z,0.90
2023-03-08T17:23:04.345Z,0.90
2023-03-08T17:25:32.993Z,0.90
2023-03-08T17:27:59.582Z,0.90
2023-03-08T17:30:26.198Z,0.90
2023-03-08T17:32:52.846Z,0.90
2023-03-08T17:35:19.502Z,0.80
2023-03-08T17:37:46.171Z,0.80
2023-03-08T17:40:13.122Z,0.80
2023-03-08T17:42:39.708Z,0.80
2023-03-08T17:45:06.629Z,0.80
2023-03-08T17:47:36.816Z,0.80
2023-03-08T17:50:04.413Z,0.80
2023-03-08T17:52:31.109Z,0.80
2023-03-08T17:54:57.863Z,0.80
2023-03-08T17:57:24.627Z,0.80
2023-03-08T17:59:51.846Z,0.80
2023-03-08T18:02:18.875Z,0.80
2023-03-08T18:04:46.393Z,0.80
2023-03-08T18:07:13.871Z,0.80
2023-03-08T18:09:40.397Z,0.80
2023-03-08T18:12:08.905Z,0.80
2023-03-08T18:14:40.027Z,0.80
2023-03-08T18:17:07.102Z,0.80
2023-03-08T18:19:33.702Z,0.80
2023-03-08T18:22:00.250Z,0.80
2023-03-08T18:24:27.364Z,0.80
2023-03-08T18:26:53.997Z,0.70
2023-03-08T18:29:20.522Z,0.70
2023-03-08T18:31:47.234Z,0.80
2023-03-08T18:34:14.876Z,0.80
2023-03-08T18:36:41.710Z,0.80
2023-03-08T18:39:12.023Z,0.80
2023-03-08T18:41:39.025Z,0.70
2023-03-08T18:44:05.546Z,0.70
2023-03-08T18:46:32.648Z,0.80
2023-03-08T18:49:01.158Z,0.80
2023-03-08T18:51:28.145Z,0.70
2023-03-08T18:53:55.555Z,0.80
2023-03-08T18:56:22.330Z,0.80
2023-03-08T18:58:48.971Z,0.70
2023-03-08T19:01:16.447Z,0.70
2023-03-08T19:03:43.722Z,0.70
2023-03-08T19:06:10.760Z,0.70
2023-03-08T19:08:37.384Z,0.80
2023-03-08T19:11:13.894Z,0.70
2023-03-08T19:13:40.609Z,0.80
2023-03-08T19:16:16.411Z,0.80
2023-03-08T19:18:43.022Z,0.80
2023-03-08T19:21:20.133Z,0.80
2023-03-08T19:23:46.943Z,0.80
2023-03-08T19:26:36.203Z,0.70
2023-03-08T19:29:05.023Z,0.80
2023-03-08T19:31:31.917Z,0.80
2023-03-08T19:33:58.532Z,0.80
2023-03-08T19:36:25.137Z,0.70
2023-03-08T19:38:51.918Z,0.70
2023-03-08T19:41:18.546Z,0.70
2023-03-08T19:43:46.414Z,0.80
2023-03-08T19:46:17.564Z,0.70
2023-03-08T19:48:46.937Z,0.70
2023-03-08T19:51:14.550Z,0.70
2023-03-08T19:53:41.715Z,0.80
2023-03-08T19:56:08.391Z,0.80
2023-03-08T19:58:34.951Z,0.80
2023-03-08T20:01:03.606Z,0.80
2023-03-08T20:03:30.409Z,0.80
2023-03-08T20:05:57.304Z,0.70
2023-03-08T20:08:23.861Z,0.80
2023-03-08T20:10:50.469Z,0.80
2023-03-08T20:13:17.067Z,0.80
2023-03-08T20:15:43.632Z,0.70
2023-03-08T20:18:10.174Z,0.80
2023-03-08T20:20:36.790Z,0.70
2023-03-08T20:23:03.516Z,0.80
2023-03-08T20:25:30.062Z,0.80
2023-03-08T20:27:56.664Z,0.80
2023-03-08T20:30:23.288Z,0.80
2023-03-08T20:32:53.216Z,0.80
2023-03-08T20:35:21.193Z,0.80
2023-03-08T20:37:48.690Z,0.80
2023-03-08T20:40:16.656Z,0.80
2023-03-08T20:42:43.299Z,0.80
2023-03-08T20:45:10.186Z,0.70
2023-03-08T20:47:36.718Z,0.70
2023-03-08T20:50:03.865Z,0.70
2023-03-08T20:52:30.540Z,0.80
2023-03-08T20:54:57.165Z,0.80
2023-03-08T20:57:23.754Z,0.80
2023-03-08T20:59:50.333Z,0.80
2023-03-08T21:02:17.104Z,0.80
2023-03-08T21:04:43.666Z,0.80
2023-03-08T21:07:10.186Z,0.80
2023-03-08T21:09:36.726Z,0.80
2023-03-08T21:12:04.346Z,0.80
2023-03-08T21:14:31.165Z,0.80
2023-03-08T21:16:57.779Z,0.80
2023-03-08T21:19:24.293Z,0.80
2023-03-08T21:21:51.252Z,0.80
2023-03-08T21:24:19.261Z,0.80
2023-03-08T21:26:46.937Z,0.80
2023-03-08T21:29:14.648Z,0.80
2023-03-08T21:31:42.552Z,0.80
2023-03-08T21:34:09.218Z,0.80
2023-03-08T21:36:37.132Z,0.90
2023-03-08T21:39:03.978Z,0.80
2023-03-08T21:41:31.710Z,0.90
2023-03-08T21:43:59.188Z,0.90
2023-03-08T21:46:25.855Z,0.90
2023-03-08T21:48:52.500Z,0.90
2023-03-08T21:51:19.031Z,0.90
2023-03-08T21:53:45.586Z,0.90
2023-03-08T21:56:14.101Z,0.90
2023-03-08T21:58:40.777Z,0.90
2023-03-08T22:01:07.522Z,0.90
2023-03-08T22:03:34.616Z,0.90
2023-03-08T22:06:01.180Z,0.90
2023-03-08T22:08:27.774Z,0.90
2023-03-08T22:10:54.677Z,0.90
2023-03-08T22:13:21.521Z,0.90
2023-03-08T22:15:48.133Z,0.90
2023-03-08T22:18:14.875Z,0.90
2023-03-08T22:20:41.401Z,0.80
2023-03-08T22:23:07.961Z,0.90
2023-03-08T22:25:34.796Z,0.80
2023-03-08T22:28:01.323Z,0.90
2023-03-08T22:30:27.896Z,0.90
2023-03-08T22:32:54.862Z,0.90
2023-03-08T22:35:22.292Z,0.90
2023-03-08T22:37:49.454Z,0.90
2023-03-08T22:40:18.326Z,0.80
2023-03-08T22:42:45.378Z,0.90
2023-03-08T22:45:12.233Z,0.80
2023-03-08T22:47:38.762Z,0.80
2023-03-08T22:50:05.563Z,0.80
2023-03-08T22:52:32.159Z,0.80
2023-03-08T22:54:58.682Z,0.80
2023-03-08T22:57:25.337Z,0.80
2023-03-08T22:59:55.690Z,0.80
2023-03-08T23:02:22.290Z,0.80
2023-03-08T23:04:48.870Z,0.70
2023-03-08T23:07:15.448Z,0.70
2023-03-08T23:09:42.066Z,0.70
2023-03-08T23:12:08.788Z,0.70
2023-03-08T23:14:35.353Z,0.70
2023-03-08T23:17:01.892Z,0.70
2023-03-08T23:19:28.437Z,0.70
2023-03-08T23:21:55.649Z,0.70
2023-03-08T23:24:22.176Z,0.70
2023-03-08T23:26:48.818Z,0.70
2023-03-08T23:29:15.602Z,0.70
2023-03-08T23:31:43.519Z,0.60
2023-03-08T23:34:10.448Z,0.70
2023-03-08T23:36:37.031Z,0.70
2023-03-08T23:39:04.170Z,0.70
2023-03-08T23:41:31.410Z,0.70
2023-03-08T23:43:58.688Z,0.70
2023-03-08T23:46:25.868Z,0.70
2023-03-08T23:48:55.204Z,0.70
2023-03-08T23:51:22.122Z,0.70
2023-03-08T23:53:49.730Z,0.70
2023-03-08T23:56:26.257Z,0.70
2023-03-08T23:59:02.419Z,0.70
